Terminal Aerodrome Forecast
Issued by NWS Sioux Falls, SD

Home | Current Version | Previous Version | Graphics & Text | Print | Product List | Glossary On
Versions: 1 2 3 4 5 6 7 8 9 10 11 12 13 14 15 16 17 18 19 20 21 22 23
000
FTUS43 KFSD 281139
TAFFSD
TAF
KFSD 281139Z 2812/2912 20007KT P6SM SCT006 OVC200
     FM281600 29012G20KT P6SM BKN016
     FM282000 29014G23KT P6SM SKC
     FM290100 28008KT P6SM SKC=

USA.gov is the U.S. government's official web portal to all federal, state and local government web resources and services.